sensor_id;sensor_type;location;lat;lon;timestamp;P1;durP1;ratioP1;P2;durP2;ratioP2
74528;SDS011;63009;52.584;5.932;2022-10-31T00:00:44;17.27;;;6.53;;
74528;SDS011;63009;52.584;5.932;2022-10-31T00:03:09;18.48;;;7.13;;
74528;SDS011;63009;52.584;5.932;2022-10-31T00:05:35;13.47;;;6.50;;
74528;SDS011;63009;52.584;5.932;2022-10-31T00:08:00;14.25;;;6.32;;
74528;SDS011;63009;52.584;5.932;2022-10-31T00:10:25;11.67;;;6.17;;
74528;SDS011;63009;52.584;5.932;2022-10-31T00:12:51;12.50;;;6.17;;
74528;SDS011;63009;52.584;5.932;2022-10-31T00:15:16;12.95;;;5.70;;
74528;SDS011;63009;52.584;5.932;2022-10-31T00:17:42;12.75;;;5.55;;
74528;SDS011;63009;52.584;5.932;2022-10-31T00:20:07;17.93;;;6.20;;
74528;SDS011;63009;52.584;5.932;2022-10-31T00:22:33;14.65;;;5.55;;
74528;SDS011;63009;52.584;5.932;2022-10-31T00:24:58;11.93;;;5.43;;
74528;SDS011;63009;52.584;5.932;2022-10-31T00:27:23;12.70;;;5.30;;
74528;SDS011;63009;52.584;5.932;2022-10-31T00:29:49;13.13;;;6.20;;
74528;SDS011;63009;52.584;5.932;2022-10-31T00:32:14;11.10;;;5.10;;
74528;SDS011;63009;52.584;5.932;2022-10-31T00:34:39;13.77;;;5.53;;
74528;SDS011;63009;52.584;5.932;2022-10-31T00:37:04;11.80;;;5.43;;
74528;SDS011;63009;52.584;5.932;2022-10-31T00:39:30;13.07;;;6.40;;
74528;SDS011;63009;52.584;5.932;2022-10-31T00:41:55;11.53;;;5.70;;
74528;SDS011;63009;52.584;5.932;2022-10-31T00:44:20;13.33;;;6.40;;
74528;SDS011;63009;52.584;5.932;2022-10-31T00:46:45;13.20;;;5.93;;
74528;SDS011;63009;52.584;5.932;2022-10-31T00:49:11;15.47;;;6.87;;
74528;SDS011;63009;52.584;5.932;2022-10-31T00:51:37;16.20;;;6.15;;
74528;SDS011;63009;52.584;5.932;2022-10-31T00:54:02;14.10;;;5.53;;
74528;SDS011;63009;52.584;5.932;2022-10-31T00:56:28;16.13;;;6.50;;
74528;SDS011;63009;52.584;5.932;2022-10-31T00:58:53;15.30;;;6.30;;
74528;SDS011;63009;52.584;5.932;2022-10-31T01:01:18;12.93;;;5.27;;
74528;SDS011;63009;52.584;5.932;2022-10-31T01:03:43;10.97;;;5.50;;
74528;SDS011;63009;52.584;5.932;2022-10-31T01:06:10;13.93;;;5.43;;
74528;SDS011;63009;52.584;5.932;2022-10-31T01:08:36;13.13;;;5.93;;
74528;SDS011;63009;52.584;5.932;2022-10-31T01:11:04;15.05;;;6.25;;
74528;SDS011;63009;52.584;5.932;2022-10-31T01:13:32;12.93;;;6.70;;
74528;SDS011;63009;52.584;5.932;2022-10-31T01:15:59;11.52;;;5.03;;
74528;SDS011;63009;52.584;5.932;2022-10-31T01:18:25;12.27;;;5.63;;
74528;SDS011;63009;52.584;5.932;2022-10-31T01:20:58;12.43;;;5.65;;
74528;SDS011;63009;52.584;5.932;2022-10-31T01:23:28;12.55;;;5.72;;
74528;SDS011;63009;52.584;5.932;2022-10-31T01:26:01;14.43;;;5.72;;
74528;SDS011;63009;52.584;5.932;2022-10-31T01:31:19;13.65;;;7.50;;
74528;SDS011;63009;52.584;5.932;2022-10-31T01:33:47;11.85;;;5.80;;
74528;SDS011;63009;52.584;5.932;2022-10-31T01:38:46;14.45;;;7.07;;
74528;SDS011;63009;52.584;5.932;2022-10-31T01:41:12;16.30;;;7.55;;
74528;SDS011;63009;52.584;5.932;2022-10-31T01:43:44;13.90;;;6.32;;
74528;SDS011;63009;52.584;5.932;2022-10-31T01:48:59;13.50;;;6.43;;
74528;SDS011;63009;52.584;5.932;2022-10-31T01:51:32;18.45;;;7.30;;
74528;SDS011;63009;52.584;5.932;2022-10-31T01:54:08;14.40;;;7.28;;
74528;SDS011;63009;52.584;5.932;2022-10-31T01:56:38;15.25;;;7.85;;
74528;SDS011;63009;52.584;5.932;2022-10-31T01:59:08;15.15;;;6.90;;
74528;SDS011;63009;52.584;5.932;2022-10-31T02:01:35;15.18;;;6.60;;
74528;SDS011;63009;52.584;5.932;2022-10-31T02:04:02;13.63;;;6.28;;
74528;SDS011;63009;52.584;5.932;2022-10-31T02:06:38;22.85;;;6.88;;
74528;SDS011;63009;52.584;5.932;2022-10-31T02:09:10;13.48;;;6.60;;
74528;SDS011;63009;52.584;5.932;2022-10-31T02:11:37;13.98;;;6.63;;
74528;SDS011;63009;52.584;5.932;2022-10-31T02:14:03;15.07;;;8.18;;
74528;SDS011;63009;52.584;5.932;2022-10-31T02:16:28;13.13;;;6.72;;
74528;SDS011;63009;52.584;5.932;2022-10-31T02:18:54;17.87;;;8.40;;
74528;SDS011;63009;52.584;5.932;2022-10-31T02:21:27;16.58;;;8.23;;
74528;SDS011;63009;52.584;5.932;2022-10-31T02:27:04;13.98;;;8.18;;
74528;SDS011;63009;52.584;5.932;2022-10-31T02:32:23;14.25;;;6.78;;
74528;SDS011;63009;52.584;5.932;2022-10-31T02:34:57;13.48;;;7.97;;
74528;SDS011;63009;52.584;5.932;2022-10-31T02:37:29;12.75;;;7.63;;
74528;SDS011;63009;52.584;5.932;2022-10-31T02:40:14;13.90;;;7.03;;
74528;SDS011;63009;52.584;5.932;2022-10-31T02:42:51;13.32;;;6.72;;
74528;SDS011;63009;52.584;5.932;2022-10-31T02:45:48;14.30;;;7.10;;
74528;SDS011;63009;52.584;5.932;2022-10-31T02:48:22;15.30;;;7.75;;
74528;SDS011;63009;52.584;5.932;2022-10-31T02:50:59;14.68;;;7.47;;
74528;SDS011;63009;52.584;5.932;2022-10-31T02:53:25;13.10;;;7.55;;
74528;SDS011;63009;52.584;5.932;2022-10-31T02:55:55;13.82;;;7.68;;
74528;SDS011;63009;52.584;5.932;2022-10-31T02:58:24;14.93;;;8.02;;
74528;SDS011;63009;52.584;5.932;2022-10-31T03:00:56;17.25;;;8.43;;
74528;SDS011;63009;52.584;5.932;2022-10-31T03:03:36;16.70;;;9.07;;
74528;SDS011;63009;52.584;5.932;2022-10-31T03:06:17;16.52;;;9.00;;
74528;SDS011;63009;52.584;5.932;2022-10-31T03:09:24;16.42;;;8.27;;
74528;SDS011;63009;52.584;5.932;2022-10-31T03:11:56;14.00;;;7.70;;
74528;SDS011;63009;52.584;5.932;2022-10-31T03:14:25;18.27;;;8.80;;
74528;SDS011;63009;52.584;5.932;2022-10-31T03:17:02;16.48;;;8.52;;
74528;SDS011;63009;52.584;5.932;2022-10-31T03:19:34;16.42;;;8.30;;
74528;SDS011;63009;52.584;5.932;2022-10-31T03:22:19;14.75;;;8.55;;
74528;SDS011;63009;52.584;5.932;2022-10-31T03:24:47;12.10;;;7.13;;
74528;SDS011;63009;52.584;5.932;2022-10-31T03:27:14;16.10;;;7.38;;
74528;SDS011;63009;52.584;5.932;2022-10-31T03:29:44;17.60;;;9.80;;
74528;SDS011;63009;52.584;5.932;2022-10-31T03:32:13;18.15;;;10.27;;
74528;SDS011;63009;52.584;5.932;2022-10-31T03:34:42;21.13;;;10.82;;
74528;SDS011;63009;52.584;5.932;2022-10-31T03:37:10;18.38;;;10.43;;
74528;SDS011;63009;52.584;5.932;2022-10-31T03:39:38;20.75;;;10.00;;
74528;SDS011;63009;52.584;5.932;2022-10-31T03:42:11;18.65;;;10.85;;
74528;SDS011;63009;52.584;5.932;2022-10-31T03:44:41;17.23;;;9.93;;
74528;SDS011;63009;52.584;5.932;2022-10-31T03:47:11;18.42;;;11.55;;
74528;SDS011;63009;52.584;5.932;2022-10-31T03:49:37;19.27;;;11.07;;
74528;SDS011;63009;52.584;5.932;2022-10-31T03:54:42;22.52;;;11.68;;
74528;SDS011;63009;52.584;5.932;2022-10-31T03:59:51;20.52;;;11.40;;
74528;SDS011;63009;52.584;5.932;2022-10-31T04:02:24;21.80;;;12.20;;
74528;SDS011;63009;52.584;5.932;2022-10-31T04:04:53;19.70;;;10.82;;
74528;SDS011;63009;52.584;5.932;2022-10-31T04:07:19;19.05;;;10.10;;
74528;SDS011;63009;52.584;5.932;2022-10-31T04:09:49;16.83;;;10.18;;
74528;SDS011;63009;52.584;5.932;2022-10-31T04:12:16;16.55;;;9.63;;
74528;SDS011;63009;52.584;5.932;2022-10-31T04:14:43;19.08;;;10.18;;
74528;SDS011;63009;52.584;5.932;2022-10-31T04:17:12;18.17;;;9.38;;
74528;SDS011;63009;52.584;5.932;2022-10-31T04:19:41;16.67;;;9.43;;
74528;SDS011;63009;52.584;5.932;2022-10-31T04:22:06;19.37;;;10.80;;
74528;SDS011;63009;52.584;5.932;2022-10-31T04:24:31;17.37;;;9.87;;
74528;SDS011;63009;52.584;5.932;2022-10-31T04:26:57;17.10;;;10.13;;
74528;SDS011;63009;52.584;5.932;2022-10-31T04:29:22;18.88;;;11.05;;
74528;SDS011;63009;52.584;5.932;2022-10-31T04:31:48;20.07;;;10.63;;
74528;SDS011;63009;52.584;5.932;2022-10-31T04:34:13;19.43;;;10.77;;
74528;SDS011;63009;52.584;5.932;2022-10-31T04:36:38;17.60;;;9.02;;
74528;SDS011;63009;52.584;5.932;2022-10-31T04:39:03;20.80;;;10.80;;
74528;SDS011;63009;52.584;5.932;2022-10-31T04:41:29;19.52;;;9.75;;
74528;SDS011;63009;52.584;5.932;2022-10-31T04:43:54;17.90;;;9.60;;
74528;SDS011;63009;52.584;5.932;2022-10-31T04:46:19;17.63;;;8.83;;
74528;SDS011;63009;52.584;5.932;2022-10-31T04:48:44;17.37;;;8.57;;
74528;SDS011;63009;52.584;5.932;2022-10-31T04:51:10;17.53;;;8.87;;
74528;SDS011;63009;52.584;5.932;2022-10-31T04:53:35;16.35;;;8.43;;
74528;SDS011;63009;52.584;5.932;2022-10-31T04:56:00;17.73;;;9.53;;
74528;SDS011;63009;52.584;5.932;2022-10-31T04:58:26;16.70;;;9.63;;
74528;SDS011;63009;52.584;5.932;2022-10-31T05:00:52;17.13;;;10.27;;
74528;SDS011;63009;52.584;5.932;2022-10-31T05:03:18;20.98;;;9.50;;
74528;SDS011;63009;52.584;5.932;2022-10-31T05:05:44;14.70;;;7.30;;
74528;SDS011;63009;52.584;5.932;2022-10-31T05:08:09;15.32;;;8.32;;
74528;SDS011;63009;52.584;5.932;2022-10-31T05:10:34;13.65;;;8.38;;
74528;SDS011;63009;52.584;5.932;2022-10-31T05:13:01;16.23;;;8.10;;
74528;SDS011;63009;52.584;5.932;2022-10-31T05:15:28;15.68;;;9.10;;
74528;SDS011;63009;52.584;5.932;2022-10-31T05:17:54;15.88;;;8.77;;
74528;SDS011;63009;52.584;5.932;2022-10-31T05:20:21;14.70;;;8.38;;
74528;SDS011;63009;52.584;5.932;2022-10-31T05:22:49;13.88;;;7.60;;
74528;SDS011;63009;52.584;5.932;2022-10-31T05:25:16;19.00;;;9.00;;
74528;SDS011;63009;52.584;5.932;2022-10-31T05:27:43;14.05;;;7.55;;
74528;SDS011;63009;52.584;5.932;2022-10-31T05:30:10;13.02;;;6.82;;
74528;SDS011;63009;52.584;5.932;2022-10-31T05:32:40;13.60;;;7.22;;
74528;SDS011;63009;52.584;5.932;2022-10-31T05:35:08;14.35;;;7.40;;
74528;SDS011;63009;52.584;5.932;2022-10-31T05:37:35;15.25;;;7.80;;
74528;SDS011;63009;52.584;5.932;2022-10-31T05:40:02;14.15;;;7.65;;
74528;SDS011;63009;52.584;5.932;2022-10-31T05:42:29;13.57;;;7.70;;
74528;SDS011;63009;52.584;5.932;2022-10-31T05:44:54;13.68;;;6.60;;
74528;SDS011;63009;52.584;5.932;2022-10-31T05:47:19;14.83;;;6.70;;
74528;SDS011;63009;52.584;5.932;2022-10-31T05:49:44;13.57;;;6.43;;
74528;SDS011;63009;52.584;5.932;2022-10-31T05:52:10;12.30;;;6.40;;
74528;SDS011;63009;52.584;5.932;2022-10-31T05:54:35;13.13;;;6.80;;
74528;SDS011;63009;52.584;5.932;2022-10-31T05:57:00;13.03;;;6.30;;
74528;SDS011;63009;52.584;5.932;2022-10-31T05:59:25;12.60;;;5.77;;
74528;SDS011;63009;52.584;5.932;2022-10-31T06:01:51;12.33;;;5.40;;
74528;SDS011;63009;52.584;5.932;2022-10-31T06:04:16;12.03;;;6.10;;
74528;SDS011;63009;52.584;5.932;2022-10-31T06:06:41;14.30;;;7.13;;
74528;SDS011;63009;52.584;5.932;2022-10-31T06:09:06;15.47;;;8.57;;
74528;SDS011;63009;52.584;5.932;2022-10-31T06:11:32;13.13;;;6.50;;
74528;SDS011;63009;52.584;5.932;2022-10-31T06:13:57;13.20;;;7.10;;
74528;SDS011;63009;52.584;5.932;2022-10-31T06:16:22;16.10;;;9.00;;
74528;SDS011;63009;52.584;5.932;2022-10-31T06:18:47;21.03;;;11.13;;
74528;SDS011;63009;52.584;5.932;2022-10-31T06:21:13;18.97;;;9.73;;
74528;SDS011;63009;52.584;5.932;2022-10-31T06:23:38;19.13;;;10.67;;
74528;SDS011;63009;52.584;5.932;2022-10-31T06:26:03;17.80;;;10.03;;
74528;SDS011;63009;52.584;5.932;2022-10-31T06:28:29;22.00;;;11.82;;
74528;SDS011;63009;52.584;5.932;2022-10-31T06:30:54;18.07;;;10.80;;
74528;SDS011;63009;52.584;5.932;2022-10-31T06:33:19;21.17;;;10.97;;
74528;SDS011;63009;52.584;5.932;2022-10-31T06:35:47;17.37;;;8.97;;
74528;SDS011;63009;52.584;5.932;2022-10-31T06:38:13;17.80;;;10.15;;
74528;SDS011;63009;52.584;5.932;2022-10-31T06:40:39;23.23;;;10.23;;
74528;SDS011;63009;52.584;5.932;2022-10-31T06:43:04;18.58;;;10.18;;
74528;SDS011;63009;52.584;5.932;2022-10-31T06:45:29;20.70;;;9.83;;
74528;SDS011;63009;52.584;5.932;2022-10-31T06:47:55;20.33;;;9.57;;
74528;SDS011;63009;52.584;5.932;2022-10-31T06:50:21;22.80;;;10.63;;
74528;SDS011;63009;52.584;5.932;2022-10-31T06:52:55;19.73;;;11.80;;
74528;SDS011;63009;52.584;5.932;2022-10-31T06:55:22;19.90;;;10.85;;
74528;SDS011;63009;52.584;5.932;2022-10-31T06:57:58;17.40;;;9.95;;
74528;SDS011;63009;52.584;5.932;2022-10-31T07:00:25;17.83;;;9.55;;
74528;SDS011;63009;52.584;5.932;2022-10-31T07:02:59;17.02;;;8.70;;
74528;SDS011;63009;52.584;5.932;2022-10-31T07:05:26;15.77;;;8.38;;
74528;SDS011;63009;52.584;5.932;2022-10-31T07:07:53;14.45;;;8.50;;
74528;SDS011;63009;52.584;5.932;2022-10-31T07:10:19;15.50;;;8.32;;
74528;SDS011;63009;52.584;5.932;2022-10-31T07:12:45;14.63;;;8.00;;
74528;SDS011;63009;52.584;5.932;2022-10-31T07:15:10;14.70;;;8.00;;
74528;SDS011;63009;52.584;5.932;2022-10-31T07:17:35;15.57;;;7.90;;
74528;SDS011;63009;52.584;5.932;2022-10-31T07:20:00;14.20;;;7.60;;
74528;SDS011;63009;52.584;5.932;2022-10-31T07:22:31;16.37;;;8.80;;
74528;SDS011;63009;52.584;5.932;2022-10-31T07:24:58;16.48;;;8.05;;
74528;SDS011;63009;52.584;5.932;2022-10-31T07:27:23;15.83;;;7.73;;
74528;SDS011;63009;52.584;5.932;2022-10-31T07:29:49;16.67;;;8.27;;
74528;SDS011;63009;52.584;5.932;2022-10-31T07:32:14;19.53;;;8.90;;
74528;SDS011;63009;52.584;5.932;2022-10-31T07:34:39;16.50;;;8.17;;
74528;SDS011;63009;52.584;5.932;2022-10-31T07:37:04;14.97;;;8.57;;
74528;SDS011;63009;52.584;5.932;2022-10-31T07:39:30;15.73;;;7.30;;
74528;SDS011;63009;52.584;5.932;2022-10-31T07:41:57;15.70;;;8.33;;
74528;SDS011;63009;52.584;5.932;2022-10-31T07:46:48;15.23;;;7.40;;
74528;SDS011;63009;52.584;5.932;2022-10-31T07:49:14;14.00;;;8.00;;
74528;SDS011;63009;52.584;5.932;2022-10-31T07:51:39;16.87;;;9.00;;
74528;SDS011;63009;52.584;5.932;2022-10-31T07:54:04;21.23;;;8.57;;
74528;SDS011;63009;52.584;5.932;2022-10-31T07:56:29;17.23;;;8.80;;
74528;SDS011;63009;52.584;5.932;2022-10-31T07:58:55;16.80;;;9.10;;
74528;SDS011;63009;52.584;5.932;2022-10-31T08:01:20;17.70;;;8.57;;
74528;SDS011;63009;52.584;5.932;2022-10-31T08:03:45;17.17;;;9.80;;
74528;SDS011;63009;52.584;5.932;2022-10-31T08:06:10;19.60;;;8.63;;
74528;SDS011;63009;52.584;5.932;2022-10-31T08:08:36;20.53;;;11.37;;
74528;SDS011;63009;52.584;5.932;2022-10-31T08:11:02;18.48;;;10.77;;
74528;SDS011;63009;52.584;5.932;2022-10-31T08:13:27;18.63;;;10.50;;
74528;SDS011;63009;52.584;5.932;2022-10-31T08:15:52;19.10;;;11.80;;
74528;SDS011;63009;52.584;5.932;2022-10-31T08:18:18;22.70;;;12.13;;
74528;SDS011;63009;52.584;5.932;2022-10-31T08:20:45;21.52;;;11.68;;
74528;SDS011;63009;52.584;5.932;2022-10-31T08:23:10;20.70;;;12.43;;
74528;SDS011;63009;52.584;5.932;2022-10-31T08:25:37;22.58;;;11.75;;
74528;SDS011;63009;52.584;5.932;2022-10-31T08:28:03;21.00;;;11.63;;
74528;SDS011;63009;52.584;5.932;2022-10-31T08:30:31;19.27;;;12.00;;
74528;SDS011;63009;52.584;5.932;2022-10-31T08:33:02;19.98;;;11.77;;
74528;SDS011;63009;52.584;5.932;2022-10-31T08:35:29;20.55;;;12.40;;
74528;SDS011;63009;52.584;5.932;2022-10-31T08:37:55;19.15;;;12.10;;
74528;SDS011;63009;52.584;5.932;2022-10-31T08:40:21;23.27;;;13.48;;
74528;SDS011;63009;52.584;5.932;2022-10-31T08:42:54;21.48;;;13.25;;
74528;SDS011;63009;52.584;5.932;2022-10-31T08:45:20;23.00;;;13.43;;
74528;SDS011;63009;52.584;5.932;2022-10-31T08:47:45;33.03;;;14.63;;
74528;SDS011;63009;52.584;5.932;2022-10-31T08:50:11;22.50;;;12.23;;
74528;SDS011;63009;52.584;5.932;2022-10-31T08:52:36;28.47;;;14.70;;
74528;SDS011;63009;52.584;5.932;2022-10-31T08:55:01;21.30;;;13.45;;
74528;SDS011;63009;52.584;5.932;2022-10-31T08:57:27;27.05;;;15.65;;
74528;SDS011;63009;52.584;5.932;2022-10-31T08:59:52;25.80;;;14.90;;
74528;SDS011;63009;52.584;5.932;2022-10-31T09:02:17;26.70;;;15.23;;
74528;SDS011;63009;52.584;5.932;2022-10-31T09:04:42;28.07;;;15.67;;
74528;SDS011;63009;52.584;5.932;2022-10-31T09:07:08;24.50;;;15.37;;
74528;SDS011;63009;52.584;5.932;2022-10-31T09:09:33;24.73;;;17.00;;
74528;SDS011;63009;52.584;5.932;2022-10-31T09:11:58;23.80;;;14.80;;
74528;SDS011;63009;52.584;5.932;2022-10-31T09:14:23;25.20;;;16.15;;
74528;SDS011;63009;52.584;5.932;2022-10-31T09:16:49;24.37;;;16.20;;
74528;SDS011;63009;52.584;5.932;2022-10-31T09:19:16;23.40;;;13.38;;
74528;SDS011;63009;52.584;5.932;2022-10-31T09:21:41;23.67;;;16.20;;
74528;SDS011;63009;52.584;5.932;2022-10-31T09:24:06;24.02;;;14.65;;
74528;SDS011;63009;52.584;5.932;2022-10-31T09:26:32;24.15;;;15.18;;
74528;SDS011;63009;52.584;5.932;2022-10-31T09:28:58;23.75;;;14.65;;
74528;SDS011;63009;52.584;5.932;2022-10-31T09:31:25;24.15;;;13.30;;
74528;SDS011;63009;52.584;5.932;2022-10-31T09:33:52;23.90;;;14.73;;
74528;SDS011;63009;52.584;5.932;2022-10-31T09:36:18;19.88;;;12.50;;
74528;SDS011;63009;52.584;5.932;2022-10-31T09:38:43;23.77;;;13.40;;
74528;SDS011;63009;52.584;5.932;2022-10-31T09:41:29;23.87;;;13.37;;
74528;SDS011;63009;52.584;5.932;2022-10-31T09:49:24;22.77;;;14.55;;
74528;SDS011;63009;52.584;5.932;2022-10-31T09:52:03;22.67;;;13.43;;
74528;SDS011;63009;52.584;5.932;2022-10-31T09:54:46;23.67;;;14.02;;
74528;SDS011;63009;52.584;5.932;2022-10-31T09:57:18;23.70;;;13.45;;
74528;SDS011;63009;52.584;5.932;2022-10-31T09:59:48;22.77;;;13.20;;
74528;SDS011;63009;52.584;5.932;2022-10-31T10:04:59;24.02;;;14.65;;
74528;SDS011;63009;52.584;5.932;2022-10-31T10:13:31;20.77;;;12.75;;
74528;SDS011;63009;52.584;5.932;2022-10-31T10:19:21;22.05;;;12.00;;
74528;SDS011;63009;52.584;5.932;2022-10-31T10:22:23;18.20;;;11.25;;
74528;SDS011;63009;52.584;5.932;2022-10-31T10:25:02;21.85;;;11.63;;
74528;SDS011;63009;52.584;5.932;2022-10-31T10:27:41;20.02;;;11.80;;
74528;SDS011;63009;52.584;5.932;2022-10-31T10:30:20;21.02;;;11.23;;
74528;SDS011;63009;52.584;5.932;2022-10-31T10:32:49;22.75;;;12.07;;
74528;SDS011;63009;52.584;5.932;2022-10-31T10:35:28;18.60;;;11.00;;
74528;SDS011;63009;52.584;5.932;2022-10-31T10:37:56;18.98;;;10.32;;
74528;SDS011;63009;52.584;5.932;2022-10-31T10:40:27;17.05;;;9.52;;
74528;SDS011;63009;52.584;5.932;2022-10-31T10:43:01;23.65;;;12.27;;
74528;SDS011;63009;52.584;5.932;2022-10-31T10:46:40;17.95;;;10.43;;
74528;SDS011;63009;52.584;5.932;2022-10-31T10:49:00;20.52;;;11.60;;
74528;SDS011;63009;52.584;5.932;2022-10-31T10:51:58;19.35;;;9.38;;
74528;SDS011;63009;52.584;5.932;2022-10-31T10:57:37;19.58;;;9.90;;
74528;SDS011;63009;52.584;5.932;2022-10-31T11:00:21;21.63;;;9.45;;
74528;SDS011;63009;52.584;5.932;2022-10-31T11:02:51;19.00;;;10.30;;
74528;SDS011;63009;52.584;5.932;2022-10-31T11:05:28;23.35;;;10.65;;
74528;SDS011;63009;52.584;5.932;2022-10-31T11:07:58;22.25;;;10.32;;
74528;SDS011;63009;52.584;5.932;2022-10-31T11:10:24;18.63;;;9.57;;
74528;SDS011;63009;52.584;5.932;2022-10-31T11:15:55;19.42;;;10.57;;
74528;SDS011;63009;52.584;5.932;2022-10-31T11:18:27;18.83;;;10.73;;
74528;SDS011;63009;52.584;5.932;2022-10-31T11:20:56;23.63;;;11.07;;
74528;SDS011;63009;52.584;5.932;2022-10-31T11:25:54;17.70;;;9.13;;
74528;SDS011;63009;52.584;5.932;2022-10-31T11:28:20;21.83;;;10.45;;
74528;SDS011;63009;52.584;5.932;2022-10-31T11:30:49;19.05;;;9.88;;
74528;SDS011;63009;52.584;5.932;2022-10-31T11:33:18;21.65;;;11.15;;
74528;SDS011;63009;52.584;5.932;2022-10-31T11:35:47;17.63;;;9.13;;
74528;SDS011;63009;52.584;5.932;2022-10-31T11:38:17;21.38;;;9.70;;
74528;SDS011;63009;52.584;5.932;2022-10-31T11:40:54;22.13;;;9.95;;
74528;SDS011;63009;52.584;5.932;2022-10-31T11:43:23;21.00;;;10.77;;
74528;SDS011;63009;52.584;5.932;2022-10-31T11:45:48;20.38;;;9.75;;
74528;SDS011;63009;52.584;5.932;2022-10-31T11:48:18;20.90;;;10.07;;
74528;SDS011;63009;52.584;5.932;2022-10-31T11:50:51;21.45;;;10.13;;
74528;SDS011;63009;52.584;5.932;2022-10-31T11:53:23;18.02;;;9.40;;
74528;SDS011;63009;52.584;5.932;2022-10-31T11:56:12;21.70;;;9.93;;
74528;SDS011;63009;52.584;5.932;2022-10-31T11:58:39;19.52;;;12.32;;
74528;SDS011;63009;52.584;5.932;2022-10-31T12:01:04;20.42;;;10.95;;
74528;SDS011;63009;52.584;5.932;2022-10-31T12:06:33;21.63;;;10.73;;
74528;SDS011;63009;52.584;5.932;2022-10-31T12:09:01;18.85;;;8.55;;
74528;SDS011;63009;52.584;5.932;2022-10-31T12:16:25;16.00;;;7.35;;
74528;SDS011;63009;52.584;5.932;2022-10-31T12:19:01;16.38;;;9.38;;
74528;SDS011;63009;52.584;5.932;2022-10-31T12:27:27;14.80;;;8.18;;
74528;SDS011;63009;52.584;5.932;2022-10-31T12:30:09;15.02;;;8.05;;
74528;SDS011;63009;52.584;5.932;2022-10-31T12:35:21;19.02;;;7.95;;
74528;SDS011;63009;52.584;5.932;2022-10-31T12:40:36;18.95;;;8.88;;
74528;SDS011;63009;52.584;5.932;2022-10-31T12:46:13;16.08;;;7.85;;
74528;SDS011;63009;52.584;5.932;2022-10-31T12:51:48;15.55;;;8.23;;
74528;SDS011;63009;52.584;5.932;2022-10-31T12:56:53;15.65;;;7.65;;
74528;SDS011;63009;52.584;5.932;2022-10-31T13:02:12;15.70;;;8.25;;
74528;SDS011;63009;52.584;5.932;2022-10-31T13:04:56;15.27;;;8.43;;
74528;SDS011;63009;52.584;5.932;2022-10-31T13:07:41;17.65;;;8.43;;
74528;SDS011;63009;52.584;5.932;2022-10-31T13:12:42;18.35;;;8.68;;
74528;SDS011;63009;52.584;5.932;2022-10-31T13:17:45;15.68;;;8.68;;
74528;SDS011;63009;52.584;5.932;2022-10-31T13:20:25;19.67;;;9.40;;
74528;SDS011;63009;52.584;5.932;2022-10-31T13:25:28;18.40;;;9.43;;
74528;SDS011;63009;52.584;5.932;2022-10-31T13:27:59;17.67;;;8.50;;
74528;SDS011;63009;52.584;5.932;2022-10-31T13:30:32;19.10;;;8.65;;
74528;SDS011;63009;52.584;5.932;2022-10-31T13:33:03;18.45;;;8.65;;
74528;SDS011;63009;52.584;5.932;2022-10-31T13:43:56;17.92;;;9.38;;
74528;SDS011;63009;52.584;5.932;2022-10-31T13:48:57;14.70;;;7.72;;
74528;SDS011;63009;52.584;5.932;2022-10-31T13:51:24;18.55;;;9.63;;
74528;SDS011;63009;52.584;5.932;2022-10-31T13:53:57;19.35;;;8.82;;
74528;SDS011;63009;52.584;5.932;2022-10-31T13:56:25;15.60;;;8.98;;
74528;SDS011;63009;52.584;5.932;2022-10-31T13:59:15;17.67;;;8.82;;
74528;SDS011;63009;52.584;5.932;2022-10-31T14:01:48;16.20;;;9.32;;
74528;SDS011;63009;52.584;5.932;2022-10-31T14:07:05;16.88;;;9.65;;
74528;SDS011;63009;52.584;5.932;2022-10-31T14:09:38;19.20;;;10.27;;
74528;SDS011;63009;52.584;5.932;2022-10-31T14:12:23;18.17;;;9.02;;
74528;SDS011;63009;52.584;5.932;2022-10-31T14:15:00;14.02;;;8.68;;
74528;SDS011;63009;52.584;5.932;2022-10-31T14:17:38;17.38;;;8.90;;
74528;SDS011;63009;52.584;5.932;2022-10-31T14:22:36;19.80;;;8.50;;
74528;SDS011;63009;52.584;5.932;2022-10-31T14:28:21;17.90;;;8.75;;
74528;SDS011;63009;52.584;5.932;2022-10-31T14:30:57;17.05;;;8.35;;
74528;SDS011;63009;52.584;5.932;2022-10-31T14:33:25;17.35;;;8.43;;
74528;SDS011;63009;52.584;5.932;2022-10-31T14:36:12;16.45;;;8.63;;
74528;SDS011;63009;52.584;5.932;2022-10-31T14:38:52;18.83;;;7.85;;
74528;SDS011;63009;52.584;5.932;2022-10-31T14:50:00;18.25;;;8.93;;
74528;SDS011;63009;52.584;5.932;2022-10-31T14:52:48;16.80;;;8.75;;
74528;SDS011;63009;52.584;5.932;2022-10-31T14:55:18;20.42;;;9.32;;
74528;SDS011;63009;52.584;5.932;2022-10-31T14:57:49;23.08;;;9.23;;
74528;SDS011;63009;52.584;5.932;2022-10-31T15:00:20;18.48;;;8.82;;
74528;SDS011;63009;52.584;5.932;2022-10-31T15:05:31;22.40;;;9.82;;
74528;SDS011;63009;52.584;5.932;2022-10-31T15:07:59;19.00;;;9.27;;
74528;SDS011;63009;52.584;5.932;2022-10-31T15:10:29;21.65;;;9.52;;
74528;SDS011;63009;52.584;5.932;2022-10-31T15:13:08;21.05;;;10.45;;
74528;SDS011;63009;52.584;5.932;2022-10-31T15:15:43;23.10;;;11.60;;
74528;SDS011;63009;52.584;5.932;2022-10-31T15:18:14;26.98;;;12.93;;
74528;SDS011;63009;52.584;5.932;2022-10-31T15:20:42;19.83;;;9.70;;
74528;SDS011;63009;52.584;5.932;2022-10-31T15:23:10;19.65;;;9.32;;
74528;SDS011;63009;52.584;5.932;2022-10-31T15:25:46;21.30;;;9.35;;
74528;SDS011;63009;52.584;5.932;2022-10-31T15:28:15;22.55;;;9.30;;
74528;SDS011;63009;52.584;5.932;2022-10-31T15:30:50;19.38;;;9.68;;
74528;SDS011;63009;52.584;5.932;2022-10-31T15:33:18;19.83;;;9.20;;
74528;SDS011;63009;52.584;5.932;2022-10-31T15:35:54;17.55;;;8.50;;
74528;SDS011;63009;52.584;5.932;2022-10-31T15:38:20;20.70;;;8.65;;
74528;SDS011;63009;52.584;5.932;2022-10-31T15:40:59;19.00;;;9.10;;
74528;SDS011;63009;52.584;5.932;2022-10-31T15:43:33;19.80;;;8.65;;
74528;SDS011;63009;52.584;5.932;2022-10-31T15:46:01;19.55;;;10.70;;
74528;SDS011;63009;52.584;5.932;2022-10-31T15:48:28;19.98;;;10.05;;
74528;SDS011;63009;52.584;5.932;2022-10-31T15:50:57;19.92;;;9.85;;
74528;SDS011;63009;52.584;5.932;2022-10-31T15:53:27;21.25;;;10.57;;
74528;SDS011;63009;52.584;5.932;2022-10-31T15:56:01;19.40;;;9.07;;
74528;SDS011;63009;52.584;5.932;2022-10-31T15:58:31;19.38;;;10.82;;
74528;SDS011;63009;52.584;5.932;2022-10-31T16:01:05;18.60;;;9.77;;
74528;SDS011;63009;52.584;5.932;2022-10-31T16:03:43;21.35;;;10.88;;
74528;SDS011;63009;52.584;5.932;2022-10-31T16:06:19;21.57;;;11.17;;
74528;SDS011;63009;52.584;5.932;2022-10-31T16:08:46;23.05;;;10.50;;
74528;SDS011;63009;52.584;5.932;2022-10-31T16:11:33;19.80;;;10.05;;
74528;SDS011;63009;52.584;5.932;2022-10-31T16:16:30;20.77;;;10.98;;
74528;SDS011;63009;52.584;5.932;2022-10-31T16:18:56;23.42;;;11.68;;
74528;SDS011;63009;52.584;5.932;2022-10-31T16:21:25;22.08;;;11.15;;
74528;SDS011;63009;52.584;5.932;2022-10-31T16:23:57;23.52;;;12.20;;
74528;SDS011;63009;52.584;5.932;2022-10-31T16:26:27;23.95;;;12.93;;
74528;SDS011;63009;52.584;5.932;2022-10-31T16:28:57;21.67;;;10.93;;
74528;SDS011;63009;52.584;5.932;2022-10-31T16:31:34;23.95;;;11.05;;
74528;SDS011;63009;52.584;5.932;2022-10-31T16:34:23;23.45;;;12.65;;
74528;SDS011;63009;52.584;5.932;2022-10-31T16:36:48;23.17;;;11.90;;
74528;SDS011;63009;52.584;5.932;2022-10-31T16:39:13;25.17;;;12.63;;
74528;SDS011;63009;52.584;5.932;2022-10-31T16:41:40;24.85;;;11.80;;
74528;SDS011;63009;52.584;5.932;2022-10-31T16:44:14;23.95;;;12.95;;